Time;durP1;ratioP1;P1;durP2;ratioP2;P2;SDS_P1;SDS_P2;PMS_P1;PMS_P2;Temp;Humidity;BMP_temperature;BMP_pressure;BME280_temperature;BME280_humidity;BME280_pressure;Samples;Min_cycle;Max_cycle;Signal;HPM_P1;HPM_P2
2022/04/16 00:00:12;;;;;;;18.83;9.27;;;17.00;57.80;;;;;;5015627;28;20095;-71
2022/04/16 00:02:39;;;;;;;18.95;9.35;;;17.00;57.90;;;;;;5015650;28;20030;-72
2022/04/16 00:05:05;;;;;;;16.70;9.00;;;17.00;58.40;;;;;;5015430;28;20029;-73
2022/04/16 00:07:31;;;;;;;14.65;9.18;;;17.00;57.90;;;;;;5015391;28;20467;-72
2022/04/16 00:09:57;;;;;;;19.80;10.05;;;16.90;57.90;;;;;;5015200;28;20022;-72
2022/04/16 00:12:23;;;;;;;14.38;8.70;;;16.90;58.10;;;;;;5015356;28;20022;-70
2022/04/16 00:14:49;;;;;;;17.67;9.32;;;16.80;58.20;;;;;;5015194;28;20026;-69
2022/04/16 00:17:16;;;;;;;14.88;9.25;;;16.80;57.20;;;;;;5015166;28;20033;-72
2022/04/16 00:19:43;;;;;;;18.75;8.45;;;16.70;58.60;;;;;;5015295;28;20497;-70
2022/04/16 00:22:12;;;;;;;16.58;8.68;;;16.70;58.30;;;;;;5015141;28;20466;-72
2022/04/16 00:24:44;;;;;;;17.35;8.18;;;16.70;58.80;;;;;;5015101;28;20034;-69
2022/04/16 00:27:10;;;;;;;18.02;8.38;;;16.80;57.30;;;;;;5015183;28;20042;-72
2022/04/16 00:29:37;;;;;;;14.75;8.35;;;16.70;57.90;;;;;;5015103;28;20401;-78
2022/04/16 00:32:05;;;;;;;13.60;8.38;;;16.70;57.20;;;;;;5013844;28;20101;-71
2022/04/16 00:34:31;;;;;;;12.63;8.55;;;16.60;57.30;;;;;;5014850;28;20033;-70
2022/04/16 00:36:57;;;;;;;17.08;8.63;;;16.60;57.40;;;;;;5015070;28;20030;-79
2022/04/16 00:39:23;;;;;;;13.75;7.60;;;16.50;57.50;;;;;;5014970;28;20101;-71
2022/04/16 00:41:50;;;;;;;18.42;8.45;;;16.50;57.40;;;;;;5015090;28;20112;-72
2022/04/16 00:44:19;;;;;;;15.85;8.20;;;16.40;57.70;;;;;;5014837;28;20383;-71
2022/04/16 00:46:45;;;;;;;15.63;8.50;;;16.40;58.30;;;;;;5014471;28;20144;-70
2022/04/16 00:49:11;;;;;;;14.38;7.93;;;16.50;57.80;;;;;;5015595;28;20495;-75
2022/04/16 00:51:37;;;;;;;16.98;7.78;;;16.50;57.30;;;;;;5017023;28;20041;-79
2022/04/16 00:54:04;;;;;;;17.63;8.00;;;16.50;57.30;;;;;;5015598;28;20029;-80
2022/04/16 00:56:29;;;;;;;12.32;7.45;;;16.50;57.60;;;;;;5014794;28;20025;-72
2022/04/16 00:58:56;;;;;;;13.35;7.78;;;16.50;57.30;;;;;;5014671;28;20051;-73
2022/04/16 01:01:21;;;;;;;12.15;7.00;;;16.40;57.90;;;;;;5014647;28;20033;-81
2022/04/16 01:03:48;;;;;;;12.82;7.60;;;16.40;57.50;;;;;;5014654;28;20030;-76
2022/04/16 01:06:15;;;;;;;16.55;6.97;;;16.40;57.40;;;;;;5014684;28;20037;-73
2022/04/16 01:08:44;;;;;;;14.13;7.85;;;16.40;57.00;;;;;;5014984;28;20129;-72
2022/04/16 01:11:14;;;;;;;13.68;7.30;;;16.40;57.20;;;;;;5014600;28;20101;-71
2022/04/16 01:13:40;;;;;;;13.93;7.65;;;16.40;57.10;;;;;;5014039;28;20022;-71
2022/04/16 01:16:06;;;;;;;11.70;7.78;;;16.40;57.40;;;;;;5014075;28;20103;-72
2022/04/16 01:18:43;;;;;;;13.68;7.80;;;16.40;57.40;;;;;;5014276;28;20029;-71
2022/04/16 01:21:10;;;;;;;17.67;7.82;;;16.30;57.40;;;;;;5014341;28;20036;-73
2022/04/16 01:23:36;;;;;;;13.88;7.88;;;16.20;57.60;;;;;;5013912;28;20029;-75
2022/04/16 01:26:01;;;;;;;14.55;7.60;;;16.30;57.80;;;;;;5014471;28;20038;-72
2022/04/16 01:28:27;;;;;;;17.70;8.93;;;16.20;57.60;;;;;;5014138;28;20101;-72
2022/04/16 01:30:53;;;;;;;16.33;8.13;;;16.20;57.90;;;;;;5014352;28;20436;-74
2022/04/16 01:33:19;;;;;;;11.75;7.80;;;16.20;58.00;;;;;;5014214;28;20026;-72
2022/04/16 01:35:44;;;;;;;14.57;8.38;;;16.20;58.00;;;;;;5012545;28;20018;-73
2022/04/16 01:38:10;;;;;;;13.85;7.80;;;16.10;58.30;;;;;;5014031;28;20073;-71
2022/04/16 01:40:36;;;;;;;15.60;8.13;;;16.10;58.30;;;;;;5013793;28;20068;-70
2022/04/16 01:43:02;;;;;;;11.45;7.78;;;16.00;58.10;;;;;;5013348;28;20464;-73
2022/04/16 01:45:27;;;;;;;13.48;7.68;;;16.00;58.40;;;;;;5013591;28;20523;-74
2022/04/16 01:47:53;;;;;;;16.00;8.40;;;15.90;58.50;;;;;;5013575;28;20129;-70
2022/04/16 01:50:19;;;;;;;14.75;7.43;;;15.90;58.30;;;;;;5013881;28;20018;-71
2022/04/16 01:52:46;;;;;;;14.00;7.82;;;15.90;58.30;;;;;;5013993;28;20034;-72
2022/04/16 01:55:12;;;;;;;13.57;7.95;;;15.90;58.50;;;;;;5014183;28;20026;-72
2022/04/16 01:57:38;;;;;;;11.77;7.38;;;15.90;58.40;;;;;;5014551;28;20033;-76
2022/04/16 02:00:09;;;;;;;11.32;7.38;;;15.90;58.30;;;;;;5019850;28;20029;-74
2022/04/16 02:02:36;;;;;;;13.80;7.40;;;15.90;58.60;;;;;;5013646;28;20018;-74
2022/04/16 02:05:03;;;;;;;10.90;7.30;;;15.90;58.60;;;;;;5013384;28;20026;-77
2022/04/16 02:07:29;;;;;;;14.18;7.70;;;15.80;58.40;;;;;;5013394;28;20395;-76
2022/04/16 02:09:55;;;;;;;13.73;7.13;;;15.80;58.60;;;;;;5013208;28;20026;-72
2022/04/16 02:12:20;;;;;;;13.07;8.13;;;15.80;58.60;;;;;;5013297;28;20022;-71
2022/04/16 02:14:46;;;;;;;14.02;8.30;;;15.80;58.70;;;;;;5013342;28;20026;-78
2022/04/16 02:17:12;;;;;;;13.10;8.48;;;15.80;59.10;;;;;;5013271;28;20033;-77
2022/04/16 02:19:38;;;;;;;13.27;7.65;;;15.70;59.20;;;;;;5013490;28;20033;-77
2022/04/16 02:22:04;;;;;;;10.65;7.72;;;15.60;59.40;;;;;;5011738;28;20057;-76
2022/04/16 02:24:30;;;;;;;12.52;8.45;;;15.60;59.80;;;;;;5013009;28;20029;-71
2022/04/16 02:26:57;;;;;;;13.70;7.60;;;15.40;60.00;;;;;;5013006;28;20048;-75
2022/04/16 02:29:23;;;;;;;14.23;8.25;;;15.40;60.50;;;;;;5013066;28;20030;-74
2022/04/16 02:31:48;;;;;;;12.77;7.85;;;15.40;60.60;;;;;;5012925;28;20037;-71
2022/04/16 02:34:14;;;;;;;14.20;8.30;;;15.40;60.40;;;;;;5011785;28;20084;-73
2022/04/16 02:36:40;;;;;;;13.98;8.15;;;15.40;60.60;;;;;;5012758;28;20467;-73
2022/04/16 02:39:08;;;;;;;15.85;7.85;;;15.40;60.70;;;;;;5013066;28;20091;-78
2022/04/16 02:41:34;;;;;;;14.10;8.30;;;15.40;60.70;;;;;;5013012;28;20049;-76
2022/04/16 02:44:00;;;;;;;15.48;8.48;;;15.40;60.80;;;;;;5012885;28;20044;-74
2022/04/16 02:49:10;;;;;;;13.13;7.22;;;15.40;60.90;;;;;;5012746;28;20068;-73
2022/04/16 02:51:38;;;;;;;10.95;8.13;;;15.30;60.60;;;;;;5012734;28;20026;-72
2022/04/16 02:54:05;;;;;;;14.27;7.78;;;15.30;61.00;;;;;;5013062;28;20030;-76
2022/04/16 02:56:32;;;;;;;9.48;7.10;;;15.30;61.40;;;;;;5016880;28;20448;-71
2022/04/16 02:58:57;;;;;;;12.57;7.68;;;15.30;60.80;;;;;;5016588;28;20048;-77
2022/04/16 03:01:23;;;;;;;10.85;7.18;;;15.30;60.80;;;;;;5016694;28;20026;-76
2022/04/16 03:03:49;;;;;;;16.73;7.47;;;15.30;60.90;;;;;;5016655;28;20026;-74
2022/04/16 03:06:15;;;;;;;14.82;7.97;;;15.30;61.40;;;;;;5017259;28;20450;-71
2022/04/16 03:08:40;;;;;;;15.07;7.50;;;15.30;61.10;;;;;;5016521;28;20025;-74
2022/04/16 03:11:06;;;;;;;12.15;7.05;;;15.30;61.20;;;;;;5016584;28;20336;-74
2022/04/16 03:13:34;;;;;;;15.80;7.85;;;15.20;61.50;;;;;;5015085;28;20526;-71
2022/04/16 03:18:45;;;;;;;14.23;7.55;;;15.20;61.20;;;;;;5016838;28;20041;-72
2022/04/16 03:21:13;;;;;;;15.23;7.28;;;15.10;61.20;;;;;;5016402;28;20025;-73
2022/04/16 03:23:39;;;;;;;9.98;7.18;;;15.20;61.70;;;;;;5015761;28;20105;-72
2022/04/16 03:26:04;;;;;;;13.35;7.63;;;15.20;61.70;;;;;;5017668;28;20034;-72
2022/04/16 03:28:31;;;;;;;13.98;7.93;;;15.20;61.40;;;;;;5016651;28;20360;-74
2022/04/16 03:30:58;;;;;;;12.13;7.63;;;15.20;61.80;;;;;;5015928;28;20060;-72
2022/04/16 03:33:23;;;;;;;11.50;7.32;;;15.20;61.80;;;;;;5016006;28;20037;-74
2022/04/16 03:35:51;;;;;;;11.68;7.85;;;15.10;62.20;;;;;;5016225;28;20030;-71
2022/04/16 03:38:20;;;;;;;14.35;8.27;;;15.10;62.70;;;;;;5016131;28;20034;-72
2022/04/16 03:40:48;;;;;;;13.50;8.13;;;15.10;62.40;;;;;;5016038;28;20040;-78
2022/04/16 03:43:14;;;;;;;18.13;7.47;;;15.10;62.80;;;;;;5015886;28;20025;-71
2022/04/16 03:45:40;;;;;;;13.90;6.55;;;15.10;62.80;;;;;;5015586;28;20034;-72
2022/04/16 03:48:07;;;;;;;10.13;7.03;;;15.00;62.70;;;;;;5015781;28;20475;-70
2022/04/16 03:50:34;;;;;;;10.38;7.70;;;15.00;63.30;;;;;;5015946;28;20026;-81
2022/04/16 03:53:00;;;;;;;11.70;7.40;;;15.00;62.70;;;;;;5017522;28;20034;-76
2022/04/16 04:00:58;;;;;;;12.70;6.22;;;15.00;63.10;;;;;;5015611;28;20057;-71
2022/04/16 04:03:24;;;;;;;14.02;7.60;;;15.00;63.20;;;;;;5016919;28;20444;-70
2022/04/16 04:05:53;;;;;;;10.65;6.68;;;15.10;62.90;;;;;;5018414;28;20026;-72
2022/04/16 04:08:20;;;;;;;13.55;7.20;;;15.10;62.70;;;;;;5013971;28;20025;-70
2022/04/16 04:10:46;;;;;;;16.50;6.85;;;15.10;62.70;;;;;;5014082;28;20458;-78
2022/04/16 04:13:16;;;;;;;12.02;7.03;;;15.10;62.80;;;;;;5015271;28;20053;-70
2022/04/16 04:15:42;;;;;;;12.48;6.90;;;15.10;62.70;;;;;;5015375;28;20466;-70
2022/04/16 04:18:09;;;;;;;12.32;6.90;;;15.10;63.60;;;;;;5015423;28;20482;-71
2022/04/16 04:20:35;;;;;;;10.50;6.40;;;15.10;63.20;;;;;;5014328;28;20037;-72
2022/04/16 04:23:03;;;;;;;11.60;6.22;;;15.00;63.50;;;;;;5015649;28;20030;-70
2022/04/16 04:25:29;;;;;;;10.85;7.15;;;15.10;63.60;;;;;;5014986;28;20030;-71
2022/04/16 04:27:56;;;;;;;13.55;7.00;;;15.10;63.60;;;;;;5014954;28;20033;-72
2022/04/16 04:30:22;;;;;;;10.60;6.80;;;15.10;63.90;;;;;;5014926;28;20030;-75
2022/04/16 04:32:47;;;;;;;11.43;7.22;;;15.10;63.60;;;;;;5015092;28;20025;-73
2022/04/16 04:35:13;;;;;;;12.75;6.30;;;15.20;64.00;;;;;;5014777;28;20024;-72
2022/04/16 04:37:39;;;;;;;11.35;6.55;;;15.10;63.90;;;;;;5014797;28;20426;-80
2022/04/16 04:40:07;;;;;;;10.05;6.07;;;15.10;64.00;;;;;;5013403;28;20077;-71
2022/04/16 04:42:34;;;;;;;10.88;6.45;;;15.10;64.00;;;;;;5013894;28;20552;-78
2022/04/16 04:45:09;;;;;;;11.70;6.60;;;15.10;63.90;;;;;;5014709;28;20020;-71
2022/04/16 04:47:36;;;;;;;13.20;6.75;;;15.10;64.10;;;;;;5014368;28;20054;-78
2022/04/16 04:50:02;;;;;;;9.45;6.07;;;15.00;63.70;;;;;;5014922;28;20026;-77
2022/04/16 04:52:29;;;;;;;13.70;6.80;;;15.00;64.00;;;;;;5014903;28;20037;-71
2022/04/16 04:54:56;;;;;;;11.93;6.80;;;15.00;64.00;;;;;;5014614;28;20475;-76
2022/04/16 04:57:21;;;;;;;9.95;5.95;;;15.00;64.30;;;;;;5013400;28;20427;-71
2022/04/16 04:59:47;;;;;;;12.63;6.53;;;15.00;64.30;;;;;;5014718;28;20030;-78
2022/04/16 05:02:13;;;;;;;10.35;6.50;;;15.10;63.90;;;;;;5014263;28;20026;-74
2022/04/16 05:04:39;;;;;;;11.98;6.32;;;15.10;64.10;;;;;;5014500;28;20478;-71
2022/04/16 05:07:07;;;;;;;12.38;7.40;;;15.00;63.80;;;;;;5014548;28;20122;-71
2022/04/16 05:09:34;;;;;;;11.55;6.70;;;15.10;64.30;;;;;;5014598;28;20562;-71
2022/04/16 05:11:59;;;;;;;12.57;6.95;;;15.10;64.20;;;;;;5014357;28;20025;-71
2022/04/16 05:14:25;;;;;;;14.32;6.57;;;15.10;64.20;;;;;;5014098;28;20529;-72
2022/04/16 05:16:51;;;;;;;10.05;6.65;;;15.10;64.20;;;;;;5012005;28;20395;-74
2022/04/16 05:19:16;;;;;;;10.82;6.50;;;15.20;64.40;;;;;;5014309;28;20033;-72
2022/04/16 05:21:43;;;;;;;13.65;6.80;;;15.20;64.20;;;;;;5014089;28;20026;-73
2022/04/16 05:24:10;;;;;;;9.60;6.60;;;15.10;64.00;;;;;;5013752;28;20089;-74
2022/04/16 05:26:38;;;;;;;13.48;6.03;;;15.10;64.30;;;;;;5014140;28;20038;-71
2022/04/16 05:29:04;;;;;;;10.18;6.85;;;15.10;64.40;;;;;;5014139;28;20417;-73
2022/04/16 05:31:30;;;;;;;14.02;6.10;;;15.10;64.30;;;;;;5013857;28;20510;-74
2022/04/16 05:36:42;;;;;;;17.50;6.63;;;15.20;64.10;;;;;;5014507;28;20096;-73
2022/04/16 05:39:08;;;;;;;13.25;6.45;;;15.30;64.00;;;;;;5013864;28;20118;-75
2022/04/16 05:41:34;;;;;;;9.98;5.93;;;15.30;63.80;;;;;;5013453;28;20057;-74
2022/04/16 05:44:04;;;;;;;9.40;6.40;;;15.40;63.50;;;;;;5014041;28;20152;-73
2022/04/16 05:46:30;;;;;;;9.75;6.40;;;15.50;63.70;;;;;;5013674;28;20053;-74
2022/04/16 05:48:55;;;;;;;8.75;5.90;;;15.50;63.20;;;;;;5016333;28;20025;-72
2022/04/16 05:51:22;;;;;;;13.77;5.90;;;15.70;63.50;;;;;;5016014;28;20086;-73
2022/04/16 05:53:49;;;;;;;8.98;6.03;;;15.80;62.60;;;;;;5014509;28;20024;-80
2022/04/16 05:56:15;;;;;;;11.18;6.30;;;15.90;62.10;;;;;;5013358;28;20036;-79
2022/04/16 05:58:42;;;;;;;8.60;5.60;;;16.10;61.70;;;;;;5013649;28;20026;-78
2022/04/16 06:01:08;;;;;;;7.75;5.72;;;16.30;60.70;;;;;;5013547;28;20037;-82
2022/04/16 06:03:44;;;;;;;10.07;6.18;;;16.40;60.10;;;;;;5013428;28;20022;-80
2022/04/16 06:06:10;;;;;;;9.95;5.35;;;16.60;59.60;;;;;;5013125;28;20037;-78
2022/04/16 06:08:37;;;;;;;8.25;5.53;;;16.70;59.30;;;;;;5013634;28;20033;-76
2022/04/16 06:11:04;;;;;;;7.88;5.57;;;16.90;59.10;;;;;;5018205;28;20037;-72
2022/04/16 06:13:30;;;;;;;12.38;5.88;;;17.10;58.40;;;;;;5021905;28;20050;-77
2022/04/16 06:15:57;;;;;;;12.43;6.25;;;17.20;58.10;;;;;;5013107;28;20459;-76
2022/04/16 06:18:22;;;;;;;12.23;5.78;;;17.40;58.10;;;;;;5013186;28;20030;-77
2022/04/16 06:20:48;;;;;;;9.93;5.57;;;17.50;57.80;;;;;;5013462;28;20160;-71
2022/04/16 06:23:14;;;;;;;11.10;5.65;;;17.50;57.30;;;;;;5014313;28;20030;-74
2022/04/16 06:25:40;;;;;;;11.60;5.32;;;17.60;57.30;;;;;;5012947;28;20018;-75
2022/04/16 06:28:07;;;;;;;7.95;5.25;;;17.70;57.30;;;;;;5013778;28;20397;-77
2022/04/16 06:30:33;;;;;;;8.23;5.18;;;17.90;55.60;;;;;;5013550;28;20064;-79
2022/04/16 06:32:59;;;;;;;8.35;5.45;;;18.10;56.10;;;;;;5011628;28;20034;-77
2022/04/16 06:35:25;;;;;;;8.52;4.70;;;18.20;55.90;;;;;;5013406;28;20125;-78
2022/04/16 06:37:51;;;;;;;7.95;4.47;;;18.40;55.40;;;;;;5012900;28;20033;-76
2022/04/16 06:40:17;;;;;;;8.05;5.00;;;18.50;53.90;;;;;;5013750;28;20030;-80
2022/04/16 06:42:43;;;;;;;10.02;4.85;;;18.60;54.90;;;;;;5013482;28;20025;-77
2022/04/16 06:45:10;;;;;;;11.90;5.15;;;18.70;54.50;;;;;;5015837;28;20034;-77
2022/04/16 06:47:36;;;;;;;8.35;5.10;;;18.80;54.50;;;;;;5015039;28;20091;-79
2022/04/16 06:50:04;;;;;;;8.38;4.82;;;19.00;54.20;;;;;;5013141;28;20423;-78
2022/04/16 06:52:30;;;;;;;10.57;4.72;;;19.10;53.40;;;;;;5013737;28;20037;-77
2022/04/16 06:54:59;;;;;;;11.75;5.38;;;19.30;53.30;;;;;;5012962;28;20021;-71
2022/04/16 06:57:26;;;;;;;11.93;5.78;;;19.30;52.90;;;;;;5013150;28;20069;-71
2022/04/16 06:59:52;;;;;;;9.43;5.10;;;19.40;53.00;;;;;;5012953;28;20026;-74
2022/04/16 07:02:18;;;;;;;7.18;5.07;;;19.50;52.90;;;;;;5013409;28;20026;-80
2022/04/16 07:04:45;;;;;;;9.52;4.70;;;19.70;52.50;;;;;;5012342;28;20084;-79
2022/04/16 07:07:11;;;;;;;10.40;5.00;;;19.80;51.20;;;;;;5012710;28;20034;-80
2022/04/16 07:09:38;;;;;;;8.25;4.55;;;19.90;52.30;;;;;;5012563;28;20332;-76
2022/04/16 07:12:06;;;;;;;12.60;5.18;;;20.00;51.80;;;;;;5013161;28;20391;-77
2022/04/16 07:14:33;;;;;;;11.15;5.05;;;20.00;51.40;;;;;;5011199;28;20048;-77
2022/04/16 07:16:59;;;;;;;15.93;5.25;;;20.10;52.00;;;;;;5012146;28;20072;-76
2022/04/16 07:19:25;;;;;;;8.20;4.97;;;20.10;51.30;;;;;;5012410;28;20022;-77
2022/04/16 07:21:51;;;;;;;11.00;4.63;;;20.20;51.20;;;;;;5012092;28;20462;-79
2022/04/16 07:24:16;;;;;;;12.18;5.00;;;20.30;50.90;;;;;;5011918;28;20030;-76
2022/04/16 07:26:42;;;;;;;8.20;4.45;;;20.20;50.50;;;;;;5011926;28;20467;-75
2022/04/16 07:29:08;;;;;;;13.15;4.53;;;20.30;51.00;;;;;;5012225;28;20029;-75
2022/04/16 07:31:36;;;;;;;13.75;4.35;;;20.30;49.50;;;;;;5012290;28;20037;-77
2022/04/16 07:34:01;;;;;;;8.68;4.47;;;20.50;50.70;;;;;;5012643;28;20365;-81
2022/04/16 07:36:27;;;;;;;9.07;4.10;;;20.50;49.90;;;;;;5012480;28;20026;-79
2022/04/16 07:38:53;;;;;;;10.60;4.47;;;20.60;49.50;;;;;;5012779;28;20167;-74
2022/04/16 07:41:18;;;;;;;9.32;4.05;;;20.50;49.40;;;;;;5015020;28;20022;-76
2022/04/16 07:43:44;;;;;;;8.75;4.45;;;20.50;49.40;;;;;;5015801;28;20430;-76
2022/04/16 07:46:10;;;;;;;9.57;4.20;;;20.60;49.60;;;;;;5015151;28;20398;-79
2022/04/16 07:48:37;;;;;;;11.05;4.25;;;20.70;49.00;;;;;;5015626;28;20120;-77
2022/04/16 07:51:04;;;;;;;5.85;3.70;;;20.70;48.40;;;;;;5015674;28;20032;-76
2022/04/16 07:53:30;;;;;;;7.68;3.63;;;20.70;48.20;;;;;;5015349;28;20029;-76
2022/04/16 07:55:57;;;;;;;7.78;3.80;;;20.80;48.30;;;;;;5015535;28;20026;-79
2022/04/16 07:58:24;;;;;;;6.20;3.05;;;20.80;47.50;;;;;;5015613;28;20309;-77
2022/04/16 08:00:50;;;;;;;7.07;3.38;;;20.70;47.30;;;;;;5015395;28;20033;-71
2022/04/16 08:03:15;;;;;;;7.95;3.40;;;20.60;47.10;;;;;;5015109;28;20029;-79
2022/04/16 08:05:42;;;;;;;6.68;3.53;;;20.60;47.20;;;;;;5015250;28;20068;-72
2022/04/16 08:08:10;;;;;;;6.35;3.38;;;20.60;47.00;;;;;;5015658;28;20126;-76
2022/04/16 08:10:37;;;;;;;7.97;3.42;;;20.60;47.20;;;;;;5016074;28;20030;-78
2022/04/16 08:13:05;;;;;;;12.05;4.75;;;20.60;47.30;;;;;;5015887;28;20022;-77
2022/04/16 08:15:31;;;;;;;7.18;3.38;;;20.70;47.30;;;;;;5017462;28;20022;-75
2022/04/16 08:17:57;;;;;;;8.68;3.53;;;20.70;47.00;;;;;;5016571;28;20455;-76
2022/04/16 08:20:23;;;;;;;7.32;3.50;;;20.80;46.80;;;;;;5015453;28;20030;-79
2022/04/16 08:22:48;;;;;;;9.63;4.22;;;20.80;46.20;;;;;;5015386;28;20463;-76
2022/04/16 08:27:51;;;;;;;12.45;4.18;;;20.90;46.30;;;;;;5014450;28;20046;-72
2022/04/16 08:30:18;;;;;;;10.00;3.42;;;20.80;46.20;;;;;;5014804;28;20101;-78
2022/04/16 08:32:45;;;;;;;11.18;3.90;;;20.80;45.90;;;;;;5014704;28;20033;-74
2022/04/16 08:35:14;;;;;;;7.75;3.72;;;20.80;46.30;;;;;;5014534;28;20026;-76
2022/04/16 08:37:41;;;;;;;6.25;3.35;;;20.70;46.00;;;;;;5014624;28;20045;-71
2022/04/16 08:40:08;;;;;;;9.20;3.25;;;20.70;45.90;;;;;;5014913;28;20490;-79
2022/04/16 08:42:36;;;;;;;8.07;3.22;;;20.70;45.70;;;;;;5014789;28;20028;-74
2022/04/16 08:45:04;;;;;;;7.72;3.40;;;20.70;46.10;;;;;;5014712;28;20069;-72
2022/04/16 08:47:32;;;;;;;6.55;3.60;;;20.70;45.90;;;;;;5014170;28;20137;-76
2022/04/16 08:50:00;;;;;;;10.63;3.35;;;20.80;45.60;;;;;;5014749;28;20102;-80
2022/04/16 08:52:31;;;;;;;9.80;3.20;;;20.80;45.70;;;;;;5013268;28;20030;-75
2022/04/16 08:55:01;;;;;;;5.60;3.03;;;20.90;45.40;;;;;;5014201;28;20085;-74
2022/04/16 08:57:27;;;;;;;6.07;3.47;;;20.90;45.90;;;;;;5013048;28;20046;-77
2022/04/16 08:59:54;;;;;;;6.82;3.85;;;20.90;45.70;;;;;;5014473;28;20026;-73
2022/04/16 09:02:22;;;;;;;9.48;3.80;;;21.00;45.60;;;;;;5014319;28;20037;-79
2022/04/16 09:04:49;;;;;;;6.78;3.08;;;21.10;45.20;;;;;;5014060;28;20057;-74
2022/04/16 09:07:15;;;;;;;6.63;3.50;;;21.10;44.80;;;;;;5014339;28;20041;-75
2022/04/16 09:09:42;;;;;;;9.52;3.22;;;21.10;44.80;;;;;;5014405;28;20527;-77
2022/04/16 09:12:20;;;;;;;7.15;3.92;;;21.10;44.80;;;;;;5014332;28;20092;-75
2022/04/16 09:14:46;;;;;;;9.98;3.50;;;21.10;44.70;;;;;;5014406;28;20467;-77
2022/04/16 09:17:16;;;;;;;7.38;3.67;;;21.20;44.60;;;;;;5014158;28;20121;-77
2022/04/16 09:19:43;;;;;;;8.05;3.60;;;21.20;44.70;;;;;;5014135;28;20022;-77
2022/04/16 09:22:09;;;;;;;8.65;4.07;;;21.20;44.60;;;;;;5013806;28;20396;-74
2022/04/16 09:24:47;;;;;;;9.18;3.92;;;21.30;44.60;;;;;;5013814;28;20030;-75
2022/04/16 09:27:14;;;;;;;6.28;3.80;;;21.30;44.50;;;;;;5013896;28;20033;-79
2022/04/16 09:29:40;;;;;;;7.88;3.97;;;21.40;44.60;;;;;;5014020;28;20028;-79
2022/04/16 09:32:07;;;;;;;9.05;3.70;;;21.50;44.50;;;;;;5013881;28;20192;-77
2022/04/16 09:34:33;;;;;;;8.70;3.88;;;21.60;44.40;;;;;;5013500;28;20085;-77
2022/04/16 09:37:11;;;;;;;7.95;3.15;;;21.70;44.20;;;;;;5013842;28;20440;-80
2022/04/16 09:39:37;;;;;;;7.35;3.13;;;21.70;44.00;;;;;;5013307;28;20037;-75
2022/04/16 09:42:03;;;;;;;7.18;3.72;;;21.70;44.20;;;;;;5013794;28;20162;-77
2022/04/16 09:44:29;;;;;;;8.52;4.88;;;21.80;44.30;;;;;;5013314;28;20026;-79
2022/04/16 09:46:55;;;;;;;8.63;3.97;;;21.90;44.40;;;;;;5012110;28;20100;-75
2022/04/16 09:49:23;;;;;;;10.68;3.60;;;22.00;44.30;;;;;;5013669;28;20379;-77
2022/04/16 09:51:50;;;;;;;6.53;3.35;;;22.00;44.00;;;;;;5013344;28;20397;-78
2022/04/16 09:54:17;;;;;;;10.32;3.42;;;22.10;44.00;;;;;;5013684;28;20022;-81
2022/04/16 09:56:46;;;;;;;10.95;3.45;;;22.10;44.10;;;;;;5013455;28;20026;-81
2022/04/16 09:59:13;;;;;;;7.05;3.38;;;22.20;44.00;;;;;;5013553;28;20479;-78
2022/04/16 10:01:46;;;;;;;9.07;3.72;;;22.30;43.60;;;;;;5013739;28;20503;-81
2022/04/16 10:04:14;;;;;;;;;;;22.30;43.20;;;;;;5015033;28;20030;-78
2022/04/16 10:06:41;;;;;;;10.20;3.40;;;22.40;43.70;;;;;;5014610;28;19914;-75
2022/04/16 10:09:22;;;;;;;6.57;3.10;;;22.50;43.20;;;;;;5014037;28;20108;-78
2022/04/16 10:15:00;;;;;;;7.28;3.22;;;22.70;42.30;;;;;;5013380;28;20426;-73
2022/04/16 10:17:35;;;;;;;12.10;3.50;;;22.80;40.30;;;;;;5013135;28;20033;-77
2022/04/16 10:20:14;;;;;;;5.45;2.78;;;22.90;40.00;;;;;;5012914;28;20163;-77
2022/04/16 10:22:51;;;;;;;5.78;2.75;;;22.90;39.60;;;;;;5012952;28;20095;-76
2022/04/16 10:25:39;;;;;;;6.18;2.85;;;23.00;39.40;;;;;;5012706;28;20084;-72
2022/04/16 10:28:06;;;;;;;9.05;3.17;;;23.00;38.20;;;;;;5012664;28;20041;-74
2022/04/16 10:30:52;;;;;;;6.75;2.80;;;23.10;38.40;;;;;;5011525;28;20439;-76
2022/04/16 10:33:28;;;;;;;5.45;3.00;;;23.30;38.50;;;;;;5012874;28;20412;-70
2022/04/16 10:35:57;;;;;;;4.97;2.70;;;23.40;38.40;;;;;;5012905;28;20336;-74
2022/04/16 10:38:34;;;;;;;6.88;3.10;;;23.50;37.50;;;;;;5013005;28;20057;-78
2022/04/16 10:41:02;;;;;;;6.60;3.30;;;23.60;37.80;;;;;;5012571;28;20033;-80
2022/04/16 10:43:33;;;;;;;6.65;3.10;;;23.60;38.00;;;;;;5013368;28;20030;-78
2022/04/16 10:46:09;;;;;;;7.50;2.67;;;23.70;37.50;;;;;;5012900;28;20073;-78
2022/04/16 10:48:39;;;;;;;5.63;2.50;;;23.70;36.80;;;;;;5012496;28;20374;-73
2022/04/16 10:51:08;;;;;;;7.07;3.00;;;23.70;35.60;;;;;;5012616;28;20416;-74
2022/04/16 10:53:38;;;;;;;7.47;3.10;;;23.90;37.10;;;;;;5012581;28;20026;-78
2022/04/16 10:56:09;;;;;;;6.30;2.65;;;23.90;37.10;;;;;;5012357;28;20026;-73
2022/04/16 10:58:35;;;;;;;6.22;2.85;;;24.00;36.60;;;;;;5012478;28;20072;-81
2022/04/16 11:01:06;;;;;;;6.13;3.08;;;24.10;37.20;;;;;;5012661;28;20109;-71
2022/04/16 11:03:35;;;;;;;5.68;2.85;;;24.20;37.70;;;;;;5012236;28;20026;-70
2022/04/16 11:06:07;;;;;;;8.45;3.20;;;24.20;37.70;;;;;;5012400;28;20045;-72
2022/04/16 11:08:34;;;;;;;10.35;3.70;;;24.30;37.40;;;;;;5012251;28;20069;-72
2022/04/16 11:11:03;;;;;;;9.85;2.85;;;24.40;37.90;;;;;;5011061;28;20463;-72
2022/04/16 11:13:33;;;;;;;10.13;3.58;;;24.50;37.50;;;;;;5011875;28;20065;-74
2022/04/16 11:16:00;;;;;;;9.10;3.60;;;24.60;37.80;;;;;;5013997;28;20099;-71
2022/04/16 11:18:26;;;;;;;6.28;3.28;;;24.60;38.10;;;;;;5014676;28;20460;-76
2022/04/16 11:20:58;;;;;;;12.25;3.45;;;24.70;38.40;;;;;;5015990;28;20111;-78
2022/04/16 11:23:27;;;;;;;7.97;3.22;;;24.70;39.00;;;;;;5015991;28;20026;-72
2022/04/16 11:34:17;;;;;;;5.93;2.90;;;24.90;38.10;;;;;;5016184;28;20117;-80
2022/04/16 11:36:43;;;;;;;9.43;3.10;;;25.00;38.10;;;;;;5015635;28;20026;-78
2022/04/16 11:39:26;;;;;;;8.20;2.90;;;25.00;38.40;;;;;;5015767;28;20034;-75
2022/04/16 11:41:56;;;;;;;;;;;25.00;38.20;;;;;;5016135;28;20022;-76
2022/04/16 11:44:33;;;;;;;6.00;2.95;;;25.00;37.00;;;;;;5015443;28;19909;-75
2022/04/16 11:47:03;;;;;;;9.63;2.67;;;25.10;37.50;;;;;;5014222;28;20065;-79
2022/04/16 11:49:30;;;;;;;7.53;3.20;;;25.20;37.40;;;;;;5014511;28;20034;-77
2022/04/16 11:51:57;;;;;;;7.95;2.90;;;25.20;37.40;;;;;;5015686;28;20034;-79
2022/04/16 11:54:29;;;;;;;5.35;2.75;;;25.20;36.70;;;;;;5015580;28;20026;-78
2022/04/16 11:56:56;;;;;;;8.00;2.80;;;25.20;36.80;;;;;;5016083;28;20022;-77
2022/04/16 11:59:24;;;;;;;5.60;2.72;;;25.30;36.50;;;;;;5015932;28;20042;-78
2022/04/16 12:02:10;;;;;;;5.25;2.45;;;25.30;36.10;;;;;;5015451;28;20026;-75
2022/04/16 12:04:40;;;;;;;7.03;3.03;;;25.30;36.00;;;;;;5014747;28;20022;-72
2022/04/16 12:07:25;;;;;;;6.85;2.90;;;25.30;35.70;;;;;;5014795;28;20061;-71
2022/04/16 12:09:51;;;;;;;5.80;2.50;;;25.30;35.50;;;;;;5015149;28;20026;-72
2022/04/16 12:12:18;;;;;;;3.80;2.40;;;25.30;35.40;;;;;;5015335;28;20149;-76
2022/04/16 12:14:51;;;;;;;6.07;2.30;;;25.30;35.30;;;;;;5014959;28;20050;-75
2022/04/16 12:17:28;;;;;;;;;;;25.30;35.40;;;;;;5015616;28;20030;-79
2022/04/16 12:20:11;;;;;;;4.68;2.40;;;25.30;34.70;;;;;;5015257;28;19909;-73
2022/04/16 12:22:55;;;;;;;7.22;2.72;;;25.40;34.90;;;;;;5013781;28;20471;-79
2022/04/16 12:25:23;;;;;;;6.18;2.55;;;25.30;34.10;;;;;;5014688;28;20499;-77
2022/04/16 12:27:51;;;;;;;4.50;2.30;;;25.30;35.50;;;;;;5014508;28;20037;-74
2022/04/16 12:30:24;;;;;;;7.32;3.05;;;25.30;35.50;;;;;;5013438;28;20022;-77
2022/04/16 12:33:03;;;;;;;7.30;2.60;;;25.30;35.30;;;;;;5014724;28;20033;-73
2022/04/16 12:35:32;;;;;;;5.13;2.55;;;25.40;35.40;;;;;;5014789;28;20037;-75
2022/04/16 12:37:58;;;;;;;6.88;2.60;;;25.50;35.60;;;;;;5014803;28;20097;-74
2022/04/16 12:40:25;;;;;;;7.60;2.63;;;25.50;35.10;;;;;;5013480;28;20026;-76
2022/04/16 12:42:53;;;;;;;6.15;2.70;;;25.50;35.00;;;;;;5015082;28;20034;-76
2022/04/16 12:45:20;;;;;;;5.55;2.28;;;25.50;35.10;;;;;;5014948;28;20029;-79
2022/04/16 12:47:45;;;;;;;7.50;2.95;;;25.50;34.80;;;;;;5014105;28;20458;-77
2022/04/16 12:50:13;;;;;;;5.28;2.70;;;25.60;35.20;;;;;;5014581;28;20057;-74
2022/04/16 12:52:40;;;;;;;8.25;2.50;;;25.60;34.50;;;;;;5014385;28;20109;-75
2022/04/16 12:55:05;;;;;;;6.82;2.60;;;25.60;34.40;;;;;;5014169;28;20077;-82
2022/04/16 12:57:32;;;;;;;6.05;2.65;;;25.60;34.20;;;;;;5014252;28;20360;-81
2022/04/16 12:59:58;;;;;;;5.72;2.85;;;25.70;34.60;;;;;;5014176;28;20022;-74
2022/04/16 13:02:25;;;;;;;6.18;2.42;;;25.80;34.80;;;;;;5014271;28;20026;-73
2022/04/16 13:04:54;;;;;;;6.07;2.45;;;25.80;34.10;;;;;;5014262;28;20383;-77
2022/04/16 13:07:20;;;;;;;7.30;3.00;;;25.90;34.10;;;;;;5014025;28;20432;-74
2022/04/16 13:09:46;;;;;;;6.68;2.72;;;25.90;34.20;;;;;;5013695;28;20103;-79
2022/04/16 13:12:13;;;;;;;5.35;2.45;;;26.00;34.40;;;;;;5014003;28;20101;-80